Scheibbs, Austria
Current Conditions -  °F | °C
As of 1:50 PM on Monday 22 Dec 2014 (Local Time) from LOWL Reporting Station
Broken Clouds Broken Clouds  
Wind Chill: 37°   Ceiling: 10000
Heat Index: 45°   Visibility: 6mi
Dew Point: 34°   Wind: 18mph
Humidity: 66%   Direction: 280°W
Pressure: 30.24"   Gusts: NA
Location:  48.01°N, 15.17°E
Report Text: LOWL 221150Z 28016KT 9999 FEW028 BKN100 BKN280 07/01 Q1024 NOSIG
Loading
Personal Weather Stations






























Interactive Weather Map New forecast layout! Learn more

10-Day Weather Forecast

Advertisements
Track Severe Weather on mobile